sensor_id;sensor_type;location;lat;lon;timestamp;P1;durP1;ratioP1;P2;durP2;ratioP2
66633;SDS011;53546;52.184;5.596;2023-01-16T00:01:49;2.08;;;1.10;;
66633;SDS011;53546;52.184;5.596;2023-01-16T00:04:15;2.85;;;1.23;;
66633;SDS011;53546;52.184;5.596;2023-01-16T00:06:40;1.65;;;1.05;;
66633;SDS011;53546;52.184;5.596;2023-01-16T00:09:05;1.77;;;1.00;;
66633;SDS011;53546;52.184;5.596;2023-01-16T00:11:31;1.55;;;1.05;;
66633;SDS011;53546;52.184;5.596;2023-01-16T00:13:57;4.03;;;1.27;;
66633;SDS011;53546;52.184;5.596;2023-01-16T00:16:23;3.15;;;1.17;;
66633;SDS011;53546;52.184;5.596;2023-01-16T00:18:49;1.90;;;1.13;;
66633;SDS011;53546;52.184;5.596;2023-01-16T00:21:15;1.50;;;0.90;;
66633;SDS011;53546;52.184;5.596;2023-01-16T00:23:40;2.15;;;1.02;;
66633;SDS011;53546;52.184;5.596;2023-01-16T00:26:06;2.47;;;1.10;;
66633;SDS011;53546;52.184;5.596;2023-01-16T00:28:32;2.63;;;1.30;;
66633;SDS011;53546;52.184;5.596;2023-01-16T00:30:57;1.27;;;1.00;;
66633;SDS011;53546;52.184;5.596;2023-01-16T00:33:23;2.53;;;1.10;;
66633;SDS011;53546;52.184;5.596;2023-01-16T00:35:48;2.75;;;1.23;;
66633;SDS011;53546;52.184;5.596;2023-01-16T00:38:14;2.70;;;1.30;;
66633;SDS011;53546;52.184;5.596;2023-01-16T00:40:39;3.67;;;1.10;;
66633;SDS011;53546;52.184;5.596;2023-01-16T00:43:05;0.95;;;0.93;;
66633;SDS011;53546;52.184;5.596;2023-01-16T00:45:30;1.33;;;1.00;;
66633;SDS011;53546;52.184;5.596;2023-01-16T00:47:56;2.88;;;0.98;;
66633;SDS011;53546;52.184;5.596;2023-01-16T00:50:23;0.80;;;0.77;;
66633;SDS011;53546;52.184;5.596;2023-01-16T00:52:48;1.23;;;0.93;;
66633;SDS011;53546;52.184;5.596;2023-01-16T00:55:14;2.08;;;0.80;;
66633;SDS011;53546;52.184;5.596;2023-01-16T00:57:39;1.52;;;1.00;;
66633;SDS011;53546;52.184;5.596;2023-01-16T01:00:05;3.65;;;1.05;;
66633;SDS011;53546;52.184;5.596;2023-01-16T01:02:31;1.73;;;0.98;;
66633;SDS011;53546;52.184;5.596;2023-01-16T01:04:56;1.08;;;0.77;;
66633;SDS011;53546;52.184;5.596;2023-01-16T01:07:21;1.27;;;0.90;;
66633;SDS011;53546;52.184;5.596;2023-01-16T01:09:47;1.23;;;0.85;;
66633;SDS011;53546;52.184;5.596;2023-01-16T01:12:12;1.55;;;0.90;;
66633;SDS011;53546;52.184;5.596;2023-01-16T01:14:38;17.88;;;1.23;;
66633;SDS011;53546;52.184;5.596;2023-01-16T01:17:03;1.20;;;0.93;;
66633;SDS011;53546;52.184;5.596;2023-01-16T01:19:28;0.73;;;0.73;;
66633;SDS011;53546;52.184;5.596;2023-01-16T01:21:54;1.00;;;0.90;;
66633;SDS011;53546;52.184;5.596;2023-01-16T01:24:19;1.42;;;0.95;;
66633;SDS011;53546;52.184;5.596;2023-01-16T01:26:45;5.05;;;1.20;;
66633;SDS011;53546;52.184;5.596;2023-01-16T01:29:11;1.30;;;0.93;;
66633;SDS011;53546;52.184;5.596;2023-01-16T01:31:36;1.95;;;0.90;;
66633;SDS011;53546;52.184;5.596;2023-01-16T01:34:02;1.00;;;0.82;;
66633;SDS011;53546;52.184;5.596;2023-01-16T01:36:27;1.05;;;0.90;;
66633;SDS011;53546;52.184;5.596;2023-01-16T01:38:52;2.60;;;0.90;;
66633;SDS011;53546;52.184;5.596;2023-01-16T01:41:18;0.80;;;0.80;;
66633;SDS011;53546;52.184;5.596;2023-01-16T01:43:44;1.55;;;0.90;;
66633;SDS011;53546;52.184;5.596;2023-01-16T01:48:42;1.55;;;1.13;;
66633;SDS011;53546;52.184;5.596;2023-01-16T01:51:09;1.25;;;0.90;;
66633;SDS011;53546;52.184;5.596;2023-01-16T01:53:37;1.48;;;0.80;;
66633;SDS011;53546;52.184;5.596;2023-01-16T01:58:45;2.35;;;0.90;;
66633;SDS011;53546;52.184;5.596;2023-01-16T02:01:14;0.80;;;0.80;;
66633;SDS011;53546;52.184;5.596;2023-01-16T02:03:40;1.92;;;1.33;;
66633;SDS011;53546;52.184;5.596;2023-01-16T02:06:08;1.58;;;0.90;;
66633;SDS011;53546;52.184;5.596;2023-01-16T02:08:39;1.15;;;0.85;;
66633;SDS011;53546;52.184;5.596;2023-01-16T02:11:10;1.15;;;1.00;;
66633;SDS011;53546;52.184;5.596;2023-01-16T02:13:51;1.55;;;1.00;;
66633;SDS011;53546;52.184;5.596;2023-01-16T02:16:25;0.90;;;0.90;;
66633;SDS011;53546;52.184;5.596;2023-01-16T02:19:14;2.00;;;1.13;;
66633;SDS011;53546;52.184;5.596;2023-01-16T02:24:43;1.10;;;0.93;;
66633;SDS011;53546;52.184;5.596;2023-01-16T02:35:19;1.70;;;1.00;;
66633;SDS011;53546;52.184;5.596;2023-01-16T02:37:58;1.98;;;1.05;;
66633;SDS011;53546;52.184;5.596;2023-01-16T02:40:33;1.73;;;1.10;;
66633;SDS011;53546;52.184;5.596;2023-01-16T02:51:38;1.85;;;1.13;;
66633;SDS011;53546;52.184;5.596;2023-01-16T02:54:44;1.00;;;0.90;;
66633;SDS011;53546;52.184;5.596;2023-01-16T02:57:17;2.33;;;1.20;;
66633;SDS011;53546;52.184;5.596;2023-01-16T02:59:44;1.08;;;0.98;;
66633;SDS011;53546;52.184;5.596;2023-01-16T03:02:09;1.15;;;0.93;;
66633;SDS011;53546;52.184;5.596;2023-01-16T03:17:33;3.22;;;1.35;;
66633;SDS011;53546;52.184;5.596;2023-01-16T03:23:28;8.75;;;1.13;;
66633;SDS011;53546;52.184;5.596;2023-01-16T03:25:57;3.47;;;1.30;;
66633;SDS011;53546;52.184;5.596;2023-01-16T03:28:35;2.42;;;1.05;;
66633;SDS011;53546;52.184;5.596;2023-01-16T03:31:16;2.80;;;1.00;;
66633;SDS011;53546;52.184;5.596;2023-01-16T03:33:49;0.90;;;0.90;;
66633;SDS011;53546;52.184;5.596;2023-01-16T03:36:29;2.53;;;1.20;;
66633;SDS011;53546;52.184;5.596;2023-01-16T03:39:06;1.23;;;0.80;;
66633;SDS011;53546;52.184;5.596;2023-01-16T03:41:33;2.33;;;0.90;;
66633;SDS011;53546;52.184;5.596;2023-01-16T03:44:01;2.05;;;1.30;;
66633;SDS011;53546;52.184;5.596;2023-01-16T03:46:31;2.50;;;1.10;;
66633;SDS011;53546;52.184;5.596;2023-01-16T03:49:03;2.22;;;1.08;;
66633;SDS011;53546;52.184;5.596;2023-01-16T03:51:35;2.70;;;1.10;;
66633;SDS011;53546;52.184;5.596;2023-01-16T03:56:35;1.15;;;1.05;;
66633;SDS011;53546;52.184;5.596;2023-01-16T03:59:08;2.05;;;1.20;;
66633;SDS011;53546;52.184;5.596;2023-01-16T04:01:39;1.40;;;0.90;;
66633;SDS011;53546;52.184;5.596;2023-01-16T04:04:11;4.45;;;1.08;;
66633;SDS011;53546;52.184;5.596;2023-01-16T04:09:14;3.03;;;1.00;;
66633;SDS011;53546;52.184;5.596;2023-01-16T04:11:43;1.65;;;0.90;;
66633;SDS011;53546;52.184;5.596;2023-01-16T04:14:09;1.85;;;1.00;;
66633;SDS011;53546;52.184;5.596;2023-01-16T04:16:36;1.35;;;0.95;;
66633;SDS011;53546;52.184;5.596;2023-01-16T04:19:02;3.30;;;0.98;;
66633;SDS011;53546;52.184;5.596;2023-01-16T04:21:28;1.15;;;1.00;;
66633;SDS011;53546;52.184;5.596;2023-01-16T04:23:54;1.67;;;0.90;;
66633;SDS011;53546;52.184;5.596;2023-01-16T04:26:20;2.50;;;1.05;;
66633;SDS011;53546;52.184;5.596;2023-01-16T04:28:46;5.28;;;0.95;;
66633;SDS011;53546;52.184;5.596;2023-01-16T04:31:11;1.83;;;0.90;;
66633;SDS011;53546;52.184;5.596;2023-01-16T04:33:36;1.52;;;0.95;;
66633;SDS011;53546;52.184;5.596;2023-01-16T04:36:02;1.25;;;0.95;;
66633;SDS011;53546;52.184;5.596;2023-01-16T04:38:28;0.93;;;0.80;;
66633;SDS011;53546;52.184;5.596;2023-01-16T04:40:53;0.80;;;0.80;;
66633;SDS011;53546;52.184;5.596;2023-01-16T04:43:19;2.67;;;0.90;;
66633;SDS011;53546;52.184;5.596;2023-01-16T04:45:45;1.17;;;0.80;;
66633;SDS011;53546;52.184;5.596;2023-01-16T04:48:11;1.45;;;0.80;;
66633;SDS011;53546;52.184;5.596;2023-01-16T04:50:37;1.23;;;0.90;;
66633;SDS011;53546;52.184;5.596;2023-01-16T04:53:02;1.42;;;0.80;;
66633;SDS011;53546;52.184;5.596;2023-01-16T04:55:28;0.80;;;0.70;;
66633;SDS011;53546;52.184;5.596;2023-01-16T04:57:53;0.88;;;0.80;;
66633;SDS011;53546;52.184;5.596;2023-01-16T05:00:19;0.68;;;0.63;;
66633;SDS011;53546;52.184;5.596;2023-01-16T05:02:44;1.05;;;0.95;;
66633;SDS011;53546;52.184;5.596;2023-01-16T05:05:10;1.73;;;1.20;;
66633;SDS011;53546;52.184;5.596;2023-01-16T05:07:35;1.02;;;0.73;;
66633;SDS011;53546;52.184;5.596;2023-01-16T05:10:01;0.93;;;0.82;;
66633;SDS011;53546;52.184;5.596;2023-01-16T05:12:26;2.15;;;0.90;;
66633;SDS011;53546;52.184;5.596;2023-01-16T05:14:52;2.45;;;1.02;;
66633;SDS011;53546;52.184;5.596;2023-01-16T05:17:17;7.20;;;1.42;;
66633;SDS011;53546;52.184;5.596;2023-01-16T05:19:42;3.83;;;1.40;;
66633;SDS011;53546;52.184;5.596;2023-01-16T05:22:08;5.57;;;1.20;;
66633;SDS011;53546;52.184;5.596;2023-01-16T05:24:33;3.08;;;1.13;;
66633;SDS011;53546;52.184;5.596;2023-01-16T05:26:58;4.35;;;1.50;;
66633;SDS011;53546;52.184;5.596;2023-01-16T05:29:24;4.05;;;1.77;;
66633;SDS011;53546;52.184;5.596;2023-01-16T05:31:49;6.00;;;1.30;;
66633;SDS011;53546;52.184;5.596;2023-01-16T05:34:15;4.07;;;1.38;;
66633;SDS011;53546;52.184;5.596;2023-01-16T05:36:40;3.17;;;1.45;;
66633;SDS011;53546;52.184;5.596;2023-01-16T05:39:05;3.22;;;1.67;;
66633;SDS011;53546;52.184;5.596;2023-01-16T05:41:31;8.30;;;2.00;;
66633;SDS011;53546;52.184;5.596;2023-01-16T05:43:56;15.00;;;2.67;;
66633;SDS011;53546;52.184;5.596;2023-01-16T05:46:21;5.50;;;1.85;;
66633;SDS011;53546;52.184;5.596;2023-01-16T05:48:47;10.20;;;2.60;;
66633;SDS011;53546;52.184;5.596;2023-01-16T05:51:12;8.18;;;1.92;;
66633;SDS011;53546;52.184;5.596;2023-01-16T05:53:38;4.18;;;2.00;;
66633;SDS011;53546;52.184;5.596;2023-01-16T05:56:07;5.30;;;2.00;;
66633;SDS011;53546;52.184;5.596;2023-01-16T05:58:33;5.40;;;2.38;;
66633;SDS011;53546;52.184;5.596;2023-01-16T06:00:59;9.13;;;3.13;;
66633;SDS011;53546;52.184;5.596;2023-01-16T06:03:24;16.90;;;4.50;;
66633;SDS011;53546;52.184;5.596;2023-01-16T06:05:50;23.58;;;4.50;;
66633;SDS011;53546;52.184;5.596;2023-01-16T06:08:15;15.45;;;3.60;;
66633;SDS011;53546;52.184;5.596;2023-01-16T06:10:40;14.95;;;3.70;;
66633;SDS011;53546;52.184;5.596;2023-01-16T06:13:06;23.30;;;4.68;;
66633;SDS011;53546;52.184;5.596;2023-01-16T06:15:31;14.25;;;3.70;;
66633;SDS011;53546;52.184;5.596;2023-01-16T06:17:56;21.02;;;4.68;;
66633;SDS011;53546;52.184;5.596;2023-01-16T06:20:22;18.05;;;3.80;;
66633;SDS011;53546;52.184;5.596;2023-01-16T06:22:48;17.67;;;4.15;;
66633;SDS011;53546;52.184;5.596;2023-01-16T06:25:13;13.60;;;4.00;;
66633;SDS011;53546;52.184;5.596;2023-01-16T06:27:38;18.88;;;3.78;;
66633;SDS011;53546;52.184;5.596;2023-01-16T06:30:05;15.70;;;4.53;;
66633;SDS011;53546;52.184;5.596;2023-01-16T06:32:31;11.98;;;3.47;;
66633;SDS011;53546;52.184;5.596;2023-01-16T06:34:56;12.98;;;3.42;;
66633;SDS011;53546;52.184;5.596;2023-01-16T06:37:21;10.40;;;3.55;;
66633;SDS011;53546;52.184;5.596;2023-01-16T06:39:47;13.45;;;3.40;;
66633;SDS011;53546;52.184;5.596;2023-01-16T06:42:12;11.93;;;3.28;;
66633;SDS011;53546;52.184;5.596;2023-01-16T06:44:38;10.55;;;2.88;;
66633;SDS011;53546;52.184;5.596;2023-01-16T06:47:03;8.68;;;2.83;;
66633;SDS011;53546;52.184;5.596;2023-01-16T06:49:29;11.75;;;2.83;;
66633;SDS011;53546;52.184;5.596;2023-01-16T06:51:54;6.85;;;2.85;;
66633;SDS011;53546;52.184;5.596;2023-01-16T06:54:19;6.93;;;2.40;;
66633;SDS011;53546;52.184;5.596;2023-01-16T06:56:45;8.18;;;2.42;;
66633;SDS011;53546;52.184;5.596;2023-01-16T06:59:10;6.93;;;2.45;;
66633;SDS011;53546;52.184;5.596;2023-01-16T07:01:36;6.97;;;2.40;;
66633;SDS011;53546;52.184;5.596;2023-01-16T07:04:01;5.95;;;2.15;;
66633;SDS011;53546;52.184;5.596;2023-01-16T07:06:26;7.20;;;2.50;;
66633;SDS011;53546;52.184;5.596;2023-01-16T07:08:52;7.90;;;2.42;;
66633;SDS011;53546;52.184;5.596;2023-01-16T07:11:17;5.82;;;2.25;;
66633;SDS011;53546;52.184;5.596;2023-01-16T07:13:43;7.95;;;2.20;;
66633;SDS011;53546;52.184;5.596;2023-01-16T07:16:12;4.55;;;2.15;;
66633;SDS011;53546;52.184;5.596;2023-01-16T07:18:57;9.18;;;2.20;;
66633;SDS011;53546;52.184;5.596;2023-01-16T07:21:41;5.70;;;2.10;;
66633;SDS011;53546;52.184;5.596;2023-01-16T07:24:28;4.18;;;1.90;;
66633;SDS011;53546;52.184;5.596;2023-01-16T07:26:55;4.35;;;1.50;;
66633;SDS011;53546;52.184;5.596;2023-01-16T07:29:23;5.07;;;2.00;;
66633;SDS011;53546;52.184;5.596;2023-01-16T07:31:49;3.35;;;1.75;;
66633;SDS011;53546;52.184;5.596;2023-01-16T07:34:15;3.88;;;1.60;;
66633;SDS011;53546;52.184;5.596;2023-01-16T07:36:40;5.70;;;1.85;;
66633;SDS011;53546;52.184;5.596;2023-01-16T07:39:05;2.92;;;1.52;;
66633;SDS011;53546;52.184;5.596;2023-01-16T07:41:31;4.68;;;1.70;;
66633;SDS011;53546;52.184;5.596;2023-01-16T07:43:56;3.72;;;1.50;;
66633;SDS011;53546;52.184;5.596;2023-01-16T07:46:21;3.00;;;1.30;;
66633;SDS011;53546;52.184;5.596;2023-01-16T07:48:47;4.43;;;1.52;;
66633;SDS011;53546;52.184;5.596;2023-01-16T07:51:12;2.67;;;1.50;;
66633;SDS011;53546;52.184;5.596;2023-01-16T07:53:37;4.10;;;1.30;;
66633;SDS011;53546;52.184;5.596;2023-01-16T07:56:03;3.50;;;1.83;;
66633;SDS011;53546;52.184;5.596;2023-01-16T07:58:29;2.35;;;1.40;;
66633;SDS011;53546;52.184;5.596;2023-01-16T08:00:55;2.00;;;1.20;;
66633;SDS011;53546;52.184;5.596;2023-01-16T08:03:22;4.95;;;1.60;;
66633;SDS011;53546;52.184;5.596;2023-01-16T08:05:48;2.92;;;1.42;;
66633;SDS011;53546;52.184;5.596;2023-01-16T08:08:16;2.40;;;1.30;;
66633;SDS011;53546;52.184;5.596;2023-01-16T08:10:42;3.15;;;1.50;;
66633;SDS011;53546;52.184;5.596;2023-01-16T08:13:07;1.85;;;1.33;;
66633;SDS011;53546;52.184;5.596;2023-01-16T08:15:33;3.83;;;1.33;;
66633;SDS011;53546;52.184;5.596;2023-01-16T08:17:58;1.02;;;0.90;;
66633;SDS011;53546;52.184;5.596;2023-01-16T08:20:24;5.82;;;1.30;;
66633;SDS011;53546;52.184;5.596;2023-01-16T08:22:52;2.03;;;1.10;;
66633;SDS011;53546;52.184;5.596;2023-01-16T08:25:19;1.85;;;0.90;;
66633;SDS011;53546;52.184;5.596;2023-01-16T08:27:48;2.70;;;1.13;;
66633;SDS011;53546;52.184;5.596;2023-01-16T08:30:14;1.10;;;0.90;;
66633;SDS011;53546;52.184;5.596;2023-01-16T08:32:40;2.60;;;1.20;;
66633;SDS011;53546;52.184;5.596;2023-01-16T08:35:05;2.45;;;1.00;;
66633;SDS011;53546;52.184;5.596;2023-01-16T08:37:32;1.77;;;1.17;;
66633;SDS011;53546;52.184;5.596;2023-01-16T08:39:57;8.18;;;1.20;;
66633;SDS011;53546;52.184;5.596;2023-01-16T08:42:23;1.48;;;0.80;;
66633;SDS011;53546;52.184;5.596;2023-01-16T08:45:10;1.88;;;0.95;;
66633;SDS011;53546;52.184;5.596;2023-01-16T08:47:55;1.83;;;1.00;;
66633;SDS011;53546;52.184;5.596;2023-01-16T08:50:39;2.42;;;1.20;;
66633;SDS011;53546;52.184;5.596;2023-01-16T08:53:23;4.50;;;1.00;;
66633;SDS011;53546;52.184;5.596;2023-01-16T08:55:48;1.40;;;1.00;;
66633;SDS011;53546;52.184;5.596;2023-01-16T08:58:14;2.60;;;1.10;;
66633;SDS011;53546;52.184;5.596;2023-01-16T09:00:40;4.43;;;0.93;;
66633;SDS011;53546;52.184;5.596;2023-01-16T09:03:06;1.75;;;1.13;;
66633;SDS011;53546;52.184;5.596;2023-01-16T09:05:31;3.45;;;1.08;;
66633;SDS011;53546;52.184;5.596;2023-01-16T09:07:57;1.85;;;0.80;;
66633;SDS011;53546;52.184;5.596;2023-01-16T09:10:22;1.90;;;0.93;;
66633;SDS011;53546;52.184;5.596;2023-01-16T09:12:48;1.67;;;1.10;;
66633;SDS011;53546;52.184;5.596;2023-01-16T09:15:32;1.38;;;0.90;;
66633;SDS011;53546;52.184;5.596;2023-01-16T09:17:57;1.75;;;1.17;;
66633;SDS011;53546;52.184;5.596;2023-01-16T09:20:22;4.00;;;0.85;;
66633;SDS011;53546;52.184;5.596;2023-01-16T09:22:48;1.48;;;0.80;;
66633;SDS011;53546;52.184;5.596;2023-01-16T09:25:14;1.10;;;0.90;;
66633;SDS011;53546;52.184;5.596;2023-01-16T09:27:39;2.10;;;1.05;;
66633;SDS011;53546;52.184;5.596;2023-01-16T09:30:05;3.58;;;1.23;;
66633;SDS011;53546;52.184;5.596;2023-01-16T09:32:31;0.90;;;0.70;;
66633;SDS011;53546;52.184;5.596;2023-01-16T09:34:58;1.45;;;0.88;;
66633;SDS011;53546;52.184;5.596;2023-01-16T09:37:23;2.08;;;1.20;;
66633;SDS011;53546;52.184;5.596;2023-01-16T09:39:49;2.55;;;1.23;;
66633;SDS011;53546;52.184;5.596;2023-01-16T09:45:18;2.10;;;1.38;;
66633;SDS011;53546;52.184;5.596;2023-01-16T09:47:49;3.05;;;1.10;;
66633;SDS011;53546;52.184;5.596;2023-01-16T09:50:20;4.18;;;1.50;;
66633;SDS011;53546;52.184;5.596;2023-01-16T09:52:48;2.13;;;0.90;;
66633;SDS011;53546;52.184;5.596;2023-01-16T09:55:40;3.75;;;1.40;;
66633;SDS011;53546;52.184;5.596;2023-01-16T09:58:25;3.05;;;1.10;;
66633;SDS011;53546;52.184;5.596;2023-01-16T10:01:01;2.97;;;0.95;;
66633;SDS011;53546;52.184;5.596;2023-01-16T10:03:45;4.90;;;1.00;;
66633;SDS011;53546;52.184;5.596;2023-01-16T10:16:56;1.75;;;0.82;;
66633;SDS011;53546;52.184;5.596;2023-01-16T10:22:43;2.90;;;0.98;;
66633;SDS011;53546;52.184;5.596;2023-01-16T10:28:27;3.63;;;1.08;;
66633;SDS011;53546;52.184;5.596;2023-01-16T10:31:00;1.63;;;1.00;;
66633;SDS011;53546;52.184;5.596;2023-01-16T10:36:11;4.20;;;1.25;;
66633;SDS011;53546;52.184;5.596;2023-01-16T10:38:47;1.98;;;1.05;;
66633;SDS011;53546;52.184;5.596;2023-01-16T10:44:23;2.10;;;1.00;;
66633;SDS011;53546;52.184;5.596;2023-01-16T10:47:25;4.00;;;0.98;;
66633;SDS011;53546;52.184;5.596;2023-01-16T10:50:10;4.72;;;1.20;;
66633;SDS011;53546;52.184;5.596;2023-01-16T10:52:36;1.80;;;0.88;;
66633;SDS011;53546;52.184;5.596;2023-01-16T10:55:02;1.75;;;0.80;;
66633;SDS011;53546;52.184;5.596;2023-01-16T10:57:28;1.33;;;0.93;;
66633;SDS011;53546;52.184;5.596;2023-01-16T10:59:55;1.05;;;0.70;;
66633;SDS011;53546;52.184;5.596;2023-01-16T11:05:50;2.38;;;0.82;;
66633;SDS011;53546;52.184;5.596;2023-01-16T11:08:05;4.65;;;1.15;;
66633;SDS011;53546;52.184;5.596;2023-01-16T11:10:34;5.88;;;1.05;;
66633;SDS011;53546;52.184;5.596;2023-01-16T11:13:00;1.30;;;0.90;;
66633;SDS011;53546;52.184;5.596;2023-01-16T11:16:00;4.57;;;0.98;;
66633;SDS011;53546;52.184;5.596;2023-01-16T11:18:46;1.73;;;0.90;;
66633;SDS011;53546;52.184;5.596;2023-01-16T11:21:16;1.17;;;1.00;;
66633;SDS011;53546;52.184;5.596;2023-01-16T11:23:47;2.47;;;1.08;;
66633;SDS011;53546;52.184;5.596;2023-01-16T11:26:14;2.83;;;0.93;;
66633;SDS011;53546;52.184;5.596;2023-01-16T11:28:42;2.55;;;0.93;;
66633;SDS011;53546;52.184;5.596;2023-01-16T11:31:17;3.15;;;0.90;;
66633;SDS011;53546;52.184;5.596;2023-01-16T11:33:45;2.30;;;1.27;;
66633;SDS011;53546;52.184;5.596;2023-01-16T11:36:17;3.80;;;0.90;;
66633;SDS011;53546;52.184;5.596;2023-01-16T11:38:43;2.17;;;0.85;;
66633;SDS011;53546;52.184;5.596;2023-01-16T11:41:10;4.57;;;1.27;;
66633;SDS011;53546;52.184;5.596;2023-01-16T11:43:35;3.50;;;0.95;;
66633;SDS011;53546;52.184;5.596;2023-01-16T11:46:28;2.63;;;1.10;;
66633;SDS011;53546;52.184;5.596;2023-01-16T11:48:58;2.80;;;0.90;;
66633;SDS011;53546;52.184;5.596;2023-01-16T11:51:27;2.38;;;1.10;;
66633;SDS011;53546;52.184;5.596;2023-01-16T11:53:57;2.00;;;1.10;;
66633;SDS011;53546;52.184;5.596;2023-01-16T12:01:48;2.13;;;0.95;;
66633;SDS011;53546;52.184;5.596;2023-01-16T12:11:13;2.75;;;0.90;;
66633;SDS011;53546;52.184;5.596;2023-01-16T12:13:54;0.73;;;0.73;;
66633;SDS011;53546;52.184;5.596;2023-01-16T12:33:08;1.50;;;0.98;;
66633;SDS011;53546;52.184;5.596;2023-01-16T12:36:03;1.15;;;0.70;;
66633;SDS011;53546;52.184;5.596;2023-01-16T12:38:36;2.50;;;1.10;;
66633;SDS011;53546;52.184;5.596;2023-01-16T12:55:23;1.33;;;0.90;;
66633;SDS011;53546;52.184;5.596;2023-01-16T12:58:05;3.10;;;0.98;;
66633;SDS011;53546;52.184;5.596;2023-01-16T13:00:39;7.38;;;1.05;;
66633;SDS011;53546;52.184;5.596;2023-01-16T13:05:41;0.90;;;0.85;;
66633;SDS011;53546;52.184;5.596;2023-01-16T13:08:16;1.92;;;1.00;;
66633;SDS011;53546;52.184;5.596;2023-01-16T13:10:48;2.00;;;1.00;;
66633;SDS011;53546;52.184;5.596;2023-01-16T13:13:36;2.10;;;1.00;;
66633;SDS011;53546;52.184;5.596;2023-01-16T13:16:19;2.53;;;1.15;;
66633;SDS011;53546;52.184;5.596;2023-01-16T13:18:50;1.30;;;0.70;;
66633;SDS011;53546;52.184;5.596;2023-01-16T13:21:19;2.83;;;1.00;;
66633;SDS011;53546;52.184;5.596;2023-01-16T13:23:48;1.35;;;0.93;;
66633;SDS011;53546;52.184;5.596;2023-01-16T13:26:16;2.53;;;0.98;;
66633;SDS011;53546;52.184;5.596;2023-01-16T13:33:41;2.58;;;0.82;;
66633;SDS011;53546;52.184;5.596;2023-01-16T13:41:53;3.60;;;0.82;;
66633;SDS011;53546;52.184;5.596;2023-01-16T13:44:30;7.95;;;1.13;;
66633;SDS011;53546;52.184;5.596;2023-01-16T13:47:19;2.22;;;0.90;;
66633;SDS011;53546;52.184;5.596;2023-01-16T13:49:48;1.90;;;0.80;;
66633;SDS011;53546;52.184;5.596;2023-01-16T13:52:21;1.23;;;0.90;;
66633;SDS011;53546;52.184;5.596;2023-01-16T13:54:50;0.80;;;0.70;;
66633;SDS011;53546;52.184;5.596;2023-01-16T13:57:20;2.45;;;1.00;;
66633;SDS011;53546;52.184;5.596;2023-01-16T13:59:47;1.40;;;0.90;;
66633;SDS011;53546;52.184;5.596;2023-01-16T14:13:14;4.05;;;1.08;;
66633;SDS011;53546;52.184;5.596;2023-01-16T14:15:58;1.65;;;0.90;;
66633;SDS011;53546;52.184;5.596;2023-01-16T14:19:18;1.65;;;0.90;;
66633;SDS011;53546;52.184;5.596;2023-01-16T14:24:05;4.60;;;1.15;;
66633;SDS011;53546;52.184;5.596;2023-01-16T14:26:43;1.58;;;0.80;;
66633;SDS011;53546;52.184;5.596;2023-01-16T14:29:13;3.58;;;0.75;;
66633;SDS011;53546;52.184;5.596;2023-01-16T14:31:41;3.20;;;0.93;;
66633;SDS011;53546;52.184;5.596;2023-01-16T14:34:15;0.60;;;0.60;;
66633;SDS011;53546;52.184;5.596;2023-01-16T14:36:43;1.02;;;0.77;;
66633;SDS011;53546;52.184;5.596;2023-01-16T14:42:05;1.25;;;0.80;;
66633;SDS011;53546;52.184;5.596;2023-01-16T14:50:53;3.47;;;1.20;;
66633;SDS011;53546;52.184;5.596;2023-01-16T14:53:52;0.93;;;0.90;;
66633;SDS011;53546;52.184;5.596;2023-01-16T14:56:39;1.10;;;1.00;;
66633;SDS011;53546;52.184;5.596;2023-01-16T15:01:40;1.88;;;1.00;;
66633;SDS011;53546;52.184;5.596;2023-01-16T15:04:37;1.20;;;0.95;;
66633;SDS011;53546;52.184;5.596;2023-01-16T15:07:07;1.33;;;1.17;;
66633;SDS011;53546;52.184;5.596;2023-01-16T15:09:33;1.80;;;0.98;;
66633;SDS011;53546;52.184;5.596;2023-01-16T15:12:02;2.65;;;1.17;;
66633;SDS011;53546;52.184;5.596;2023-01-16T15:14:35;1.33;;;1.23;;
66633;SDS011;53546;52.184;5.596;2023-01-16T15:22:47;1.00;;;0.90;;
66633;SDS011;53546;52.184;5.596;2023-01-16T15:27:45;1.55;;;1.10;;
66633;SDS011;53546;52.184;5.596;2023-01-16T15:30:14;1.30;;;1.02;;
66633;SDS011;53546;52.184;5.596;2023-01-16T15:32:56;1.00;;;1.00;;
66633;SDS011;53546;52.184;5.596;2023-01-16T15:35:41;1.45;;;1.20;;
66633;SDS011;53546;52.184;5.596;2023-01-16T15:38:08;0.98;;;0.98;;
66633;SDS011;53546;52.184;5.596;2023-01-16T15:40:34;5.60;;;1.15;;
66633;SDS011;53546;52.184;5.596;2023-01-16T15:43:01;5.30;;;1.92;;
66633;SDS011;53546;52.184;5.596;2023-01-16T15:51:40;3.15;;;1.70;;
66633;SDS011;53546;52.184;5.596;2023-01-16T15:54:13;2.53;;;1.75;;
66633;SDS011;53546;52.184;5.596;2023-01-16T15:56:42;5.20;;;1.40;;
66633;SDS011;53546;52.184;5.596;2023-01-16T15:59:23;3.63;;;1.25;;
66633;SDS011;53546;52.184;5.596;2023-01-16T16:01:50;14.43;;;1.80;;
66633;SDS011;53546;52.184;5.596;2023-01-16T16:04:15;6.15;;;1.80;;
66633;SDS011;53546;52.184;5.596;2023-01-16T16:06:41;6.65;;;1.90;;
66633;SDS011;53546;52.184;5.596;2023-01-16T16:09:10;4.20;;;1.40;;
66633;SDS011;53546;52.184;5.596;2023-01-16T16:11:42;2.17;;;1.60;;
66633;SDS011;53546;52.184;5.596;2023-01-16T16:17:04;5.93;;;1.60;;
66633;SDS011;53546;52.184;5.596;2023-01-16T16:20:22;2.40;;;1.88;;
66633;SDS011;53546;52.184;5.596;2023-01-16T16:28:20;1.60;;;1.50;;
66633;SDS011;53546;52.184;5.596;2023-01-16T16:30:46;5.68;;;1.67;;
66633;SDS011;53546;52.184;5.596;2023-01-16T16:33:22;2.15;;;1.38;;
66633;SDS011;53546;52.184;5.596;2023-01-16T16:35:50;3.53;;;1.80;;
66633;SDS011;53546;52.184;5.596;2023-01-16T16:38:24;3.45;;;1.77;;
66633;SDS011;53546;52.184;5.596;2023-01-16T16:46:35;4.15;;;1.90;;
66633;SDS011;53546;52.184;5.596;2023-01-16T16:51:41;3.13;;;1.90;;
66633;SDS011;53546;52.184;5.596;2023-01-16T16:54:17;4.15;;;1.88;;
66633;SDS011;53546;52.184;5.596;2023-01-16T16:56:44;4.70;;;2.03;;
66633;SDS011;53546;52.184;5.596;2023-01-16T16:59:21;5.45;;;2.20;;
66633;SDS011;53546;52.184;5.596;2023-01-16T17:01:51;3.63;;;1.80;;
66633;SDS011;53546;52.184;5.596;2023-01-16T17:04:18;2.47;;;1.80;;
66633;SDS011;53546;52.184;5.596;2023-01-16T17:06:45;7.00;;;2.05;;
66633;SDS011;53546;52.184;5.596;2023-01-16T17:09:11;4.22;;;1.85;;
66633;SDS011;53546;52.184;5.596;2023-01-16T17:11:39;3.67;;;2.25;;
66633;SDS011;53546;52.184;5.596;2023-01-16T17:14:05;6.97;;;2.03;;
66633;SDS011;53546;52.184;5.596;2023-01-16T17:16:31;9.57;;;2.13;;
66633;SDS011;53546;52.184;5.596;2023-01-16T17:19:00;5.45;;;2.17;;
66633;SDS011;53546;52.184;5.596;2023-01-16T17:21:47;4.90;;;1.90;;
66633;SDS011;53546;52.184;5.596;2023-01-16T17:24:17;4.68;;;2.13;;
66633;SDS011;53546;52.184;5.596;2023-01-16T17:26:43;4.07;;;1.95;;
66633;SDS011;53546;52.184;5.596;2023-01-16T17:29:08;10.95;;;2.13;;
66633;SDS011;53546;52.184;5.596;2023-01-16T17:31:38;8.88;;;1.90;;
66633;SDS011;53546;52.184;5.596;2023-01-16T17:34:05;11.60;;;2.50;;
66633;SDS011;53546;52.184;5.596;2023-01-16T17:36:30;6.93;;;2.40;;
66633;SDS011;53546;52.184;5.596;2023-01-16T17:38:57;8.13;;;2.00;;
66633;SDS011;53546;52.184;5.596;2023-01-16T17:41:26;6.43;;;2.00;;
66633;SDS011;53546;52.184;5.596;2023-01-16T17:43:54;7.22;;;2.30;;
66633;SDS011;53546;52.184;5.596;2023-01-16T17:46:38;3.35;;;2.03;;
66633;SDS011;53546;52.184;5.596;2023-01-16T17:49:04;7.65;;;2.20;;
66633;SDS011;53546;52.184;5.596;2023-01-16T17:51:29;8.73;;;2.45;;
66633;SDS011;53546;52.184;5.596;2023-01-16T17:53:56;3.45;;;1.98;;
66633;SDS011;53546;52.184;5.596;2023-01-16T17:56:22;4.65;;;2.35;;
66633;SDS011;53546;52.184;5.596;2023-01-16T17:58:48;4.85;;;2.20;;
66633;SDS011;53546;52.184;5.596;2023-01-16T18:01:21;7.28;;;2.10;;
66633;SDS011;53546;52.184;5.596;2023-01-16T18:03:52;5.88;;;2.45;;
66633;SDS011;53546;52.184;5.596;2023-01-16T18:08:50;5.90;;;2.05;;
66633;SDS011;53546;52.184;5.596;2023-01-16T18:11:17;5.47;;;1.95;;
66633;SDS011;53546;52.184;5.596;2023-01-16T18:14:01;9.70;;;2.10;;